Time;durP1;ratioP1;P1;durP2;ratioP2;P2;SDS_P1;SDS_P2;PMS_P1;PMS_P2;Temp;Humidity;BMP_temperature;BMP_pressure;BME280_temperature;BME280_humidity;BME280_pressure;Samples;Min_cycle;Max_cycle;Signal;HPM_P1;HPM_P2
2021/04/03 00:03:20;;;;;;;23.15;3.17;;;4.70;99.90;;;;;;12352428;28;20053;-42
2021/04/03 00:09:22;;;;;;;16.05;3.65;;;4.50;99.90;;;;;;12351533;28;20144;-42
2021/04/03 00:15:24;;;;;;;15.40;3.00;;;4.30;99.90;;;;;;12350785;28;21035;-42
2021/04/03 00:21:25;;;;;;;13.80;3.20;;;4.30;99.90;;;;;;12347059;28;20575;-43
2021/04/03 00:27:26;;;;;;;14.20;3.38;;;4.40;99.90;;;;;;12350921;28;20061;-42
2021/04/03 00:33:28;;;;;;;19.63;3.60;;;4.30;99.90;;;;;;12357245;28;20144;-43
2021/04/03 00:39:30;;;;;;;17.85;3.35;;;4.10;99.90;;;;;;12358990;28;20047;-42
2021/04/03 00:45:31;;;;;;;16.65;3.03;;;3.90;99.90;;;;;;12352311;28;20049;-42
2021/04/03 00:51:34;;;;;;;18.55;3.40;;;3.80;99.90;;;;;;12354421;28;20065;-43
2021/04/03 00:57:36;;;;;;;22.38;3.05;;;3.60;99.90;;;;;;12349406;28;20165;-44
2021/04/03 01:03:37;;;;;;;22.63;2.85;;;3.30;99.90;;;;;;12360162;28;20137;-43
2021/04/03 01:09:39;;;;;;;21.10;3.00;;;3.60;99.90;;;;;;12355792;28;20456;-43
2021/04/03 01:15:59;;;;;;;15.00;2.70;;;3.60;99.90;;;;;;12349988;28;20432;-43
2021/04/03 01:22:09;;;;;;;18.15;4.35;;;3.60;99.90;;;;;;12348437;28;20490;-42
2021/04/03 01:28:43;;;;;;;17.23;2.90;;;3.60;99.90;;;;;;12352199;28;20150;-42
2021/04/03 01:34:47;;;;;;;16.10;3.08;;;3.60;99.90;;;;;;12353506;28;20058;-42
2021/04/03 01:40:52;;;;;;;15.48;2.55;;;3.60;99.90;;;;;;12352901;28;20801;-43
2021/04/03 01:46:54;;;;;;;15.23;2.77;;;3.60;99.90;;;;;;12345960;28;20181;-42
2021/04/03 01:52:55;;;;;;;12.85;2.92;;;3.60;99.90;;;;;;12335769;28;20062;-42
2021/04/03 01:58:59;;;;;;;18.08;3.75;;;3.60;99.90;;;;;;12344893;28;20070;-42
2021/04/03 02:05:00;;;;;;;16.52;2.70;;;3.70;99.90;;;;;;12342669;28;20581;-42
2021/04/03 02:11:03;;;;;;;18.38;2.78;;;3.80;99.90;;;;;;12344949;28;20050;-42
2021/04/03 02:17:06;;;;;;;16.52;3.03;;;3.70;99.90;;;;;;12345755;28;20046;-43
2021/04/03 02:23:08;;;;;;;15.45;2.60;;;3.80;99.90;;;;;;12336214;28;20145;-43
2021/04/03 02:29:10;;;;;;;15.70;2.53;;;3.80;99.90;;;;;;12353475;28;20467;-42
2021/04/03 02:35:12;;;;;;;22.80;2.70;;;3.80;99.90;;;;;;12351964;28;20399;-42
2021/04/03 02:41:17;;;;;;;13.98;2.42;;;3.70;99.90;;;;;;12341279;28;20491;-43
2021/04/03 02:47:22;;;;;;;;;;;3.60;99.90;;;;;;12339546;28;20106;-44
2021/04/03 02:53:28;;;;;;;16.67;3.13;;;3.50;99.90;;;;;;12338286;28;20394;-43
2021/04/03 02:59:35;;;;;;;16.60;2.50;;;3.40;99.90;;;;;;12354686;28;20442;-42
2021/04/03 03:05:37;;;;;;;15.00;2.83;;;3.20;99.90;;;;;;12351892;28;20053;-43
2021/04/03 03:11:43;;;;;;;20.02;3.95;;;3.40;99.90;;;;;;12344430;28;20054;-42
2021/04/03 03:17:46;;;;;;;18.65;3.03;;;3.50;99.90;;;;;;12347017;28;20042;-43
2021/04/03 03:23:48;;;;;;;17.90;2.60;;;3.80;99.90;;;;;;12351136;28;20052;-42
2021/04/03 03:29:51;;;;;;;15.32;2.80;;;3.70;99.90;;;;;;12347939;28;20479;-44
2021/04/03 03:35:52;;;;;;;11.73;2.30;;;3.70;99.90;;;;;;12353952;28;20495;-42
2021/04/03 03:42:00;;;;;;;15.55;2.53;;;3.80;99.90;;;;;;12345792;28;20057;-42
2021/04/03 03:48:01;;;;;;;19.75;2.70;;;3.80;99.90;;;;;;12347569;28;20058;-42
2021/04/03 03:54:03;;;;;;;15.43;2.55;;;3.90;99.90;;;;;;12354179;28;20085;-44
2021/04/03 04:00:06;;;;;;;19.00;2.95;;;4.00;99.90;;;;;;12350224;28;20050;-42
2021/04/03 04:06:08;;;;;;;26.00;3.30;;;4.00;99.90;;;;;;12341150;28;20458;-42
2021/04/03 04:12:10;;;;;;;16.27;3.00;;;4.10;99.90;;;;;;12331806;28;20104;-44
2021/04/03 04:18:11;;;;;;;19.63;2.95;;;4.20;99.90;;;;;;12343628;28;20142;-42
2021/04/03 04:24:13;;;;;;;21.98;3.83;;;4.20;99.90;;;;;;12354438;28;20169;-42
2021/04/03 04:30:15;;;;;;;26.08;3.55;;;4.20;99.90;;;;;;12349271;28;20173;-44
2021/04/03 04:36:16;;;;;;;24.27;3.53;;;4.30;99.90;;;;;;12340395;28;20448;-43
2021/04/03 04:42:17;;;;;;;21.02;3.58;;;4.30;99.90;;;;;;12332838;28;20050;-43
2021/04/03 04:48:19;;;;;;;30.02;4.03;;;4.20;99.90;;;;;;12348074;28;20128;-42
2021/04/03 04:54:20;;;;;;;22.38;4.32;;;4.40;99.90;;;;;;12343122;28;20136;-42
2021/04/03 05:00:22;;;;;;;29.48;5.35;;;4.20;99.90;;;;;;12353469;28;20511;-43
2021/04/03 05:06:23;;;;;;;26.98;4.47;;;4.30;99.90;;;;;;12355373;28;20054;-43
2021/04/03 05:12:25;;;;;;;27.13;4.93;;;4.20;99.90;;;;;;12364454;28;20571;-42
2021/04/03 05:18:26;;;;;;;35.45;5.68;;;4.50;99.90;;;;;;12350267;28;20146;-44
2021/04/03 05:24:27;;;;;;;27.13;6.65;;;4.40;99.90;;;;;;12359418;28;20141;-43
2021/04/03 05:30:29;;;;;;;26.60;5.63;;;4.30;99.90;;;;;;12355952;28;20406;-43
2021/04/03 05:36:30;;;;;;;27.25;5.88;;;4.40;99.90;;;;;;12344407;28;20042;-44
2021/04/03 05:42:34;;;;;;;34.45;6.40;;;4.40;99.90;;;;;;12354135;28;21428;-43
2021/04/03 05:48:35;;;;;;;28.13;5.95;;;4.50;99.90;;;;;;12360462;28;20064;-46
2021/04/03 05:54:39;;;;;;;28.40;6.65;;;4.40;99.90;;;;;;12352486;28;20099;-42
2021/04/03 06:00:40;;;;;;;29.17;6.65;;;4.40;99.90;;;;;;12353875;28;20068;-43
2021/04/03 06:06:42;;;;;;;30.67;6.90;;;4.60;99.90;;;;;;12340731;28;20479;-43
2021/04/03 06:12:44;;;;;;;24.15;7.50;;;4.60;99.90;;;;;;12350951;28;20144;-43
2021/04/03 06:18:46;;;;;;;26.23;6.30;;;4.60;99.90;;;;;;12355989;28;20089;-42
2021/04/03 06:24:47;;;;;;;24.75;8.27;;;4.60;99.90;;;;;;12344816;28;20050;-43
2021/04/03 06:30:49;;;;;;;28.90;7.85;;;4.60;99.90;;;;;;12353243;28;20132;-44
2021/04/03 06:36:50;;;;;;;36.25;7.47;;;4.70;99.90;;;;;;12347783;28;20064;-43
2021/04/03 06:42:55;;;;;;;29.65;7.68;;;4.70;99.90;;;;;;12358353;28;20094;-43
2021/04/03 06:48:58;;;;;;;24.75;7.40;;;4.80;99.90;;;;;;12348303;28;20262;-42
2021/04/03 06:55:00;;;;;;;29.75;7.43;;;4.80;99.90;;;;;;12352804;28;20088;-44
2021/04/03 07:01:01;;;;;;;29.83;7.47;;;4.90;99.90;;;;;;12348712;28;20085;-42
2021/04/03 07:07:03;;;;;;;27.58;8.10;;;5.10;99.90;;;;;;12362427;28;20760;-43
2021/04/03 07:13:08;;;;;;;27.35;7.07;;;5.10;99.90;;;;;;12342704;28;20066;-42
2021/04/03 07:19:11;;;;;;;35.80;8.95;;;5.20;99.90;;;;;;12354692;28;20141;-42
2021/04/03 07:25:14;;;;;;;29.25;8.25;;;5.20;99.90;;;;;;12340545;28;20153;-43
2021/04/03 07:31:37;;;;;;;27.95;8.27;;;5.20;99.90;;;;;;12347675;28;20137;-43
2021/04/03 07:37:39;;;;;;;26.92;8.85;;;5.40;99.90;;;;;;12349675;28;20593;-43
2021/04/03 07:43:47;;;;;;;28.58;8.40;;;5.50;99.90;;;;;;12335168;28;20043;-43
2021/04/03 07:49:48;;;;;;;33.95;10.18;;;5.50;99.90;;;;;;12354315;28;20125;-43
2021/04/03 07:55:54;;;;;;;36.50;9.82;;;5.50;99.90;;;;;;12345781;28;20128;-43
2021/04/03 08:01:55;;;;;;;35.00;11.35;;;5.40;99.90;;;;;;12352554;28;20820;-43
2021/04/03 08:07:56;;;;;;;30.85;10.68;;;5.60;99.90;;;;;;12348479;28;20830;-43
2021/04/03 08:13:58;;;;;;;34.83;9.90;;;6.00;99.90;;;;;;12351703;28;20065;-43
2021/04/03 08:20:00;;;;;;;27.90;9.45;;;6.10;99.90;;;;;;12341619;28;20050;-42
2021/04/03 08:26:02;;;;;;;30.02;8.55;;;6.20;99.90;;;;;;12344089;28;20061;-43
2021/04/03 08:32:05;;;;;;;28.05;9.50;;;6.50;99.90;;;;;;12350150;28;20173;-43
2021/04/03 08:38:10;;;;;;;24.95;9.18;;;6.80;99.90;;;;;;12346571;28;20057;-45
2021/04/03 08:44:23;;;;;;;24.88;8.63;;;6.70;99.90;;;;;;12345487;28;20141;-43
2021/04/03 08:50:27;;;;;;;27.00;7.97;;;7.10;99.90;;;;;;12338632;28;20264;-43
2021/04/03 08:56:34;;;;;;;26.05;8.27;;;7.40;99.90;;;;;;12343093;28;20057;-45
2021/04/03 09:02:35;;;;;;;27.55;8.63;;;7.60;99.90;;;;;;12344122;28;20205;-43
2021/04/03 09:08:37;;;;;;;20.13;7.68;;;7.30;99.90;;;;;;12339016;28;20149;-43
2021/04/03 09:14:39;;;;;;;22.45;8.48;;;7.60;99.90;;;;;;12325393;28;20042;-43
2021/04/03 09:20:50;;;;;;;22.55;7.18;;;8.00;99.90;;;;;;12342835;28;20475;-43
2021/04/03 09:26:51;;;;;;;18.73;6.80;;;7.60;99.90;;;;;;12343580;28;20061;-45
2021/04/03 09:32:53;;;;;;;21.83;7.30;;;7.90;99.90;;;;;;12340192;28;20054;-43
2021/04/03 09:38:54;;;;;;;24.45;7.38;;;8.20;99.90;;;;;;12341106;28;20057;-43
2021/04/03 09:44:58;;;;;;;20.30;6.50;;;8.50;99.90;;;;;;12337440;28;20624;-43
2021/04/03 09:50:59;;;;;;;18.23;6.60;;;8.80;99.90;;;;;;12338916;28;20042;-43
2021/04/03 09:57:03;;;;;;;22.13;7.30;;;9.10;99.90;;;;;;12345047;28;20676;-43
2021/04/03 10:03:05;;;;;;;17.50;5.97;;;9.10;99.90;;;;;;12339619;28;20178;-42
2021/04/03 10:09:06;;;;;;;19.30;5.47;;;9.10;99.90;;;;;;12341928;28;20151;-43
2021/04/03 10:15:08;;;;;;;25.10;6.68;;;9.30;99.90;;;;;;12353627;28;20138;-43
2021/04/03 10:21:11;;;;;;;22.98;6.05;;;9.40;99.90;;;;;;12356724;28;20133;-44
2021/04/03 10:27:12;;;;;;;20.20;5.45;;;9.80;99.90;;;;;;12357151;28;20149;-43
2021/04/03 10:33:14;;;;;;;20.48;6.30;;;9.80;99.90;;;;;;12352267;28;20150;-44
2021/04/03 10:39:15;;;;;;;15.65;5.10;;;10.30;99.90;;;;;;12358056;28;20410;-43
2021/04/03 10:45:16;;;;;;;21.60;4.85;;;10.30;99.90;;;;;;12356256;28;20498;-44
2021/04/03 10:51:18;;;;;;;14.30;5.18;;;10.20;99.90;;;;;;12347394;28;20089;-43
2021/04/03 10:57:22;;;;;;;16.80;4.43;;;10.40;99.90;;;;;;12348894;28;20062;-43
2021/04/03 11:03:23;;;;;;;21.50;4.90;;;10.70;99.90;;;;;;12355434;28;20129;-43
2021/04/03 11:09:24;;;;;;;15.27;4.40;;;10.70;99.90;;;;;;12329924;28;20144;-43
2021/04/03 11:15:26;;;;;;;15.60;4.63;;;11.30;99.90;;;;;;12353577;28;20148;-42
2021/04/03 11:21:27;;;;;;;18.80;4.05;;;11.10;99.90;;;;;;12361530;28;20078;-43
2021/04/03 11:27:29;;;;;;;13.63;3.75;;;11.20;99.90;;;;;;12360426;28;20088;-42
2021/04/03 11:33:30;;;;;;;10.98;3.42;;;11.50;99.90;;;;;;12355831;28;20152;-43
2021/04/03 11:39:31;;;;;;;12.38;3.13;;;11.20;99.90;;;;;;12345491;28;20049;-42
2021/04/03 11:45:33;;;;;;;7.97;2.85;;;11.20;99.90;;;;;;12339210;28;20081;-44
2021/04/03 11:51:35;;;;;;;5.00;1.98;;;11.30;99.90;;;;;;12356469;28;20050;-42
2021/04/03 11:57:37;;;;;;;6.68;2.10;;;11.50;99.90;;;;;;12353007;28;20045;-43
2021/04/03 12:03:39;;;;;;;10.05;2.65;;;11.40;99.90;;;;;;12339880;28;20149;-43
2021/04/03 12:09:40;;;;;;;13.60;2.83;;;11.20;99.90;;;;;;12354905;28;20102;-45
2021/04/03 12:15:42;;;;;;;8.60;2.33;;;11.20;99.90;;;;;;12342452;28;20054;-42
2021/04/03 12:21:44;;;;;;;9.73;2.67;;;11.00;99.90;;;;;;12344424;28;20046;-44
2021/04/03 12:27:45;;;;;;;8.68;1.85;;;10.80;99.90;;;;;;12335421;28;20145;-42
2021/04/03 12:33:46;;;;;;;6.82;2.10;;;11.50;99.90;;;;;;12349822;28;20054;-42
2021/04/03 12:39:48;;;;;;;7.18;2.13;;;11.70;99.90;;;;;;12349980;28;20052;-43
2021/04/03 12:45:49;;;;;;;6.00;1.98;;;11.60;99.90;;;;;;12346313;28;20065;-44
2021/04/03 12:51:50;;;;;;;15.75;5.70;;;12.00;99.90;;;;;;12348003;28;20050;-42
2021/04/03 12:57:52;;;;;;;7.93;2.88;;;12.20;99.90;;;;;;12345291;28;20145;-42
2021/04/03 13:03:53;;;;;;;11.38;3.88;;;12.60;99.90;;;;;;12346171;28;20502;-43
2021/04/03 13:09:54;;;;;;;6.97;2.38;;;12.50;99.90;;;;;;12340603;28;20104;-42
2021/04/03 13:15:56;;;;;;;6.00;1.80;;;12.20;99.90;;;;;;12343803;28;20069;-43
2021/04/03 13:21:57;;;;;;;7.70;2.10;;;11.80;99.90;;;;;;12332683;28;20521;-42
2021/04/03 13:27:59;;;;;;;14.07;5.60;;;11.70;99.90;;;;;;12338242;28;20064;-45
2021/04/03 13:34:01;;;;;;;5.95;2.25;;;12.10;99.90;;;;;;12359073;28;20054;-43
2021/04/03 13:40:03;;;;;;;5.63;2.30;;;11.80;99.90;;;;;;12360715;28;20093;-42
2021/04/03 13:46:04;;;;;;;8.90;2.22;;;11.90;99.90;;;;;;12354348;28;20061;-43
2021/04/03 13:52:06;;;;;;;8.57;1.98;;;12.20;99.90;;;;;;12351376;28;20149;-44
2021/04/03 13:58:07;;;;;;;8.85;2.90;;;11.90;99.90;;;;;;12353390;28;20112;-43
2021/04/03 14:04:09;;;;;;;8.38;2.20;;;11.70;99.90;;;;;;12353974;28;20165;-43
2021/04/03 14:10:10;;;;;;;6.13;2.70;;;12.10;99.90;;;;;;12350316;28;20129;-43
2021/04/03 14:16:12;;;;;;;5.53;2.10;;;12.30;99.90;;;;;;12342072;28;20129;-43
2021/04/03 14:22:13;;;;;;;8.38;2.33;;;12.00;99.90;;;;;;12355753;28;21528;-42
2021/04/03 14:28:14;;;;;;;9.27;2.30;;;11.90;99.90;;;;;;12363055;28;20081;-43
2021/04/03 14:34:16;;;;;;;8.73;2.20;;;12.00;99.90;;;;;;12358002;28;20352;-42
2021/04/03 14:40:17;;;;;;;8.07;2.40;;;12.60;99.90;;;;;;12350445;28;20061;-43
2021/04/03 14:46:19;;;;;;;7.65;2.30;;;12.40;99.90;;;;;;12350600;28;20169;-44
2021/04/03 14:52:20;;;;;;;8.07;2.10;;;11.90;99.90;;;;;;12357281;28;20103;-43
2021/04/03 14:58:21;;;;;;;14.45;3.05;;;12.00;99.90;;;;;;12361969;28;20056;-43
2021/04/03 15:04:23;;;;;;;7.50;2.50;;;12.60;99.90;;;;;;12363510;28;20117;-43
2021/04/03 15:10:24;;;;;;;8.50;2.90;;;13.00;99.90;;;;;;12351965;28;20070;-44
2021/04/03 15:16:26;;;;;;;9.18;2.75;;;13.20;99.90;;;;;;12357701;28;20073;-42
2021/04/03 15:22:27;;;;;;;7.18;2.42;;;13.00;99.90;;;;;;12346944;28;20040;-43
2021/04/03 15:28:28;;;;;;;13.02;3.22;;;13.10;99.90;;;;;;12357780;28;20072;-43
2021/04/03 15:34:30;;;;;;;14.90;3.95;;;12.70;99.90;;;;;;12365488;28;20469;-44
2021/04/03 15:40:31;;;;;;;10.15;3.20;;;12.60;99.90;;;;;;12358513;28;20837;-42
2021/04/03 15:46:33;;;;;;;9.35;3.42;;;12.00;99.90;;;;;;12351770;28;20146;-44
2021/04/03 15:52:34;;;;;;;16.02;4.18;;;11.70;99.90;;;;;;12355575;28;20899;-43
2021/04/03 15:58:36;;;;;;;13.57;4.20;;;11.90;99.90;;;;;;12356509;28;20051;-42
2021/04/03 16:04:37;;;;;;;12.23;3.55;;;11.80;99.90;;;;;;12362654;28;20057;-42
2021/04/03 16:10:40;;;;;;;15.88;4.85;;;11.90;99.90;;;;;;12348316;28;20042;-42
2021/04/03 16:16:42;;;;;;;14.60;5.93;;;11.90;99.90;;;;;;12352668;28;20096;-43
2021/04/03 16:22:44;;;;;;;24.30;7.93;;;12.00;99.90;;;;;;12353360;28;20388;-43
2021/04/03 16:28:45;;;;;;;41.22;8.60;;;11.60;99.90;;;;;;12354180;28;20058;-42
2021/04/03 16:34:46;;;;;;;22.55;7.90;;;10.90;99.90;;;;;;12346871;28;20077;-42
2021/04/03 16:40:48;;;;;;;21.85;7.07;;;10.80;99.90;;;;;;12351949;28;20064;-43
2021/04/03 16:46:49;;;;;;;22.73;7.75;;;10.60;99.90;;;;;;12333911;28;20085;-43
2021/04/03 16:52:51;;;;;;;18.40;7.80;;;10.70;99.90;;;;;;12357963;28;20054;-43
2021/04/03 16:58:52;;;;;;;17.48;7.55;;;10.90;99.90;;;;;;12352430;28;20124;-42
2021/04/03 17:04:54;;;;;;;18.40;6.13;;;11.40;99.90;;;;;;12346875;28;20149;-42
2021/04/03 17:10:55;;;;;;;15.57;4.80;;;11.10;99.90;;;;;;12332717;28;20500;-42
2021/04/03 17:16:57;;;;;;;17.75;4.50;;;11.10;99.90;;;;;;12351924;28;20137;-43
2021/04/03 17:22:59;;;;;;;18.05;4.55;;;10.90;99.90;;;;;;12350317;28;20137;-42
2021/04/03 17:29:00;;;;;;;11.65;4.13;;;10.60;99.90;;;;;;12351198;28;20096;-42
2021/04/03 17:35:02;;;;;;;13.63;3.35;;;10.40;99.90;;;;;;12344101;28;20054;-43
2021/04/03 17:41:04;;;;;;;16.17;3.92;;;9.90;99.90;;;;;;12337421;28;20558;-42
2021/04/03 17:47:06;;;;;;;13.07;3.83;;;9.70;99.90;;;;;;12334625;28;20066;-43
2021/04/03 17:53:07;;;;;;;19.38;4.63;;;9.40;99.90;;;;;;12354852;28;20081;-41
2021/04/03 17:59:08;;;;;;;15.55;3.80;;;9.20;99.90;;;;;;12360555;28;20050;-42
2021/04/03 18:05:10;;;;;;;15.85;3.92;;;9.10;99.90;;;;;;12345291;28;20456;-43
2021/04/03 18:11:11;;;;;;;16.92;4.38;;;8.90;99.90;;;;;;12335503;28;20099;-42
2021/04/03 18:17:13;;;;;;;16.27;4.15;;;8.70;99.90;;;;;;12341288;28;20145;-42
2021/04/03 18:23:39;;;;;;;13.55;3.47;;;8.40;99.90;;;;;;12351577;28;20038;-42
2021/04/03 18:29:40;;;;;;;16.17;4.78;;;8.30;99.90;;;;;;12345136;28;20133;-42
2021/04/03 18:35:42;;;;;;;20.13;4.63;;;8.20;99.90;;;;;;12350771;28;20046;-41
2021/04/03 18:41:44;;;;;;;22.40;5.57;;;8.10;99.90;;;;;;12336622;28;20129;-41
2021/04/03 18:47:45;;;;;;;22.58;5.05;;;8.10;99.90;;;;;;12348926;28;21121;-41
2021/04/03 18:53:47;;;;;;;16.60;4.32;;;7.90;99.90;;;;;;12344010;28;20056;-42
2021/04/03 18:59:48;;;;;;;22.27;7.57;;;7.70;99.90;;;;;;12339729;28;20058;-42
2021/04/03 19:05:50;;;;;;;15.30;5.07;;;7.60;99.90;;;;;;12334283;28;20704;-41
2021/04/03 19:11:51;;;;;;;20.73;4.07;;;7.40;99.90;;;;;;12332807;28;20046;-42
2021/04/03 19:17:53;;;;;;;25.42;5.47;;;7.30;99.90;;;;;;12328358;28;20088;-43
2021/04/03 19:23:54;;;;;;;23.20;4.80;;;7.20;99.90;;;;;;12355525;28;20161;-41
2021/04/03 19:29:55;;;;;;;24.88;6.30;;;7.10;99.90;;;;;;12348236;28;20169;-42
2021/04/03 19:35:57;;;;;;;22.08;5.13;;;6.90;99.90;;;;;;12344152;28;20480;-41
2021/04/03 19:41:58;;;;;;;20.65;4.47;;;6.80;99.90;;;;;;12347006;28;20057;-42
2021/04/03 19:48:00;;;;;;;18.73;4.22;;;6.70;99.90;;;;;;12359180;28;20072;-43
2021/04/03 19:54:01;;;;;;;21.58;6.70;;;6.70;99.90;;;;;;12362741;28;20054;-42
2021/04/03 20:00:05;;;;;;;17.50;5.00;;;6.50;99.90;;;;;;12345678;28;20054;-41
2021/04/03 20:06:06;;;;;;;18.97;5.07;;;6.30;99.90;;;;;;12345711;28;20081;-41
2021/04/03 20:12:09;;;;;;;22.77;5.57;;;6.30;99.90;;;;;;12341451;28;20042;-41
2021/04/03 20:18:11;;;;;;;17.05;4.97;;;6.10;99.90;;;;;;12351336;28;20061;-42
2021/04/03 20:24:13;;;;;;;19.45;5.07;;;6.00;99.90;;;;;;12349367;28;20496;-41
2021/04/03 20:30:30;;;;;;;23.13;4.55;;;5.90;99.90;;;;;;12354769;28;20050;-43
2021/04/03 20:36:31;;;;;;;28.80;5.53;;;5.80;99.90;;;;;;12364139;28;20133;-41
2021/04/03 20:42:33;;;;;;;20.48;4.97;;;5.70;99.90;;;;;;12354322;28;20088;-42
2021/04/03 20:48:34;;;;;;;25.83;5.47;;;5.60;99.90;;;;;;12346479;28;20097;-42
2021/04/03 20:54:36;;;;;;;22.45;5.43;;;5.50;99.90;;;;;;12347212;28;20050;-42
2021/04/03 21:00:38;;;;;;;16.38;5.28;;;5.40;99.90;;;;;;12352663;28;20137;-43
2021/04/03 21:06:40;;;;;;;23.42;5.93;;;5.40;99.90;;;;;;12338998;28;20085;-42
2021/04/03 21:12:42;;;;;;;29.17;6.57;;;5.40;99.90;;;;;;12346458;28;20133;-41
2021/04/03 21:18:46;;;;;;;23.13;5.75;;;5.40;99.90;;;;;;12352284;28;20055;-42
2021/04/03 21:24:47;;;;;;;25.13;5.32;;;5.30;99.90;;;;;;12336573;28;20054;-43
2021/04/03 21:30:49;;;;;;;19.45;5.07;;;5.10;99.90;;;;;;12350188;28;20042;-42
2021/04/03 21:36:50;;;;;;;28.90;5.97;;;5.00;99.90;;;;;;12344990;28;20205;-41
2021/04/03 21:42:54;;;;;;;25.65;5.63;;;5.00;99.90;;;;;;12337005;28;20062;-42
2021/04/03 21:48:56;;;;;;;24.58;5.28;;;4.90;99.90;;;;;;12347782;28;20538;-42
2021/04/03 21:54:57;;;;;;;22.42;5.82;;;4.80;99.90;;;;;;12346720;28;20145;-42
2021/04/03 22:00:59;;;;;;;20.50;5.80;;;4.80;99.90;;;;;;12343728;28;20053;-42
2021/04/03 22:07:00;;;;;;;14.13;5.05;;;4.70;99.90;;;;;;12333287;28;20042;-42
2021/04/03 22:13:02;;;;;;;18.65;5.32;;;4.60;99.90;;;;;;12339795;28;20068;-41
2021/04/03 22:19:05;;;;;;;22.27;5.50;;;4.30;99.90;;;;;;12335492;28;20068;-41
2021/04/03 22:25:07;;;;;;;24.88;5.78;;;3.90;99.90;;;;;;12341016;28;20078;-43
2021/04/03 22:31:08;;;;;;;21.58;5.53;;;4.30;99.90;;;;;;12342449;28;20177;-42
2021/04/03 22:37:10;;;;;;;18.70;5.40;;;4.40;99.90;;;;;;12342523;28;20050;-42
2021/04/03 22:43:13;;;;;;;27.52;5.55;;;4.80;99.90;;;;;;12337216;28;20052;-41
2021/04/03 22:49:15;;;;;;;22.70;5.60;;;5.20;99.90;;;;;;12342706;28;20128;-41
2021/04/03 22:55:17;;;;;;;22.23;5.32;;;5.10;99.90;;;;;;12340066;28;20138;-42
2021/04/03 23:01:18;;;;;;;21.02;5.07;;;5.20;99.90;;;;;;12348461;28;20517;-42
2021/04/03 23:07:20;;;;;;;19.27;5.63;;;5.10;99.90;;;;;;12335646;28;20543;-42
2021/04/03 23:13:21;;;;;;;23.73;5.70;;;5.20;99.90;;;;;;12340942;28;20136;-42
2021/04/03 23:19:23;;;;;;;34.42;6.00;;;5.30;99.90;;;;;;12352669;28;20238;-42
2021/04/03 23:25:24;;;;;;;25.45;5.15;;;5.30;99.90;;;;;;12342650;28;20089;-42
2021/04/03 23:31:25;;;;;;;22.05;5.53;;;5.30;99.90;;;;;;12350546;28;20059;-42
2021/04/03 23:37:27;;;;;;;19.38;5.13;;;5.30;99.90;;;;;;12350397;28;20147;-41
2021/04/03 23:43:28;;;;;;;20.23;5.40;;;5.30;99.90;;;;;;12343515;28;20069;-42
2021/04/03 23:49:29;;;;;;;19.70;4.90;;;5.30;99.90;;;;;;12351507;28;20094;-41
2021/04/03 23:55:31;;;;;;;21.70;4.63;;;5.30;99.90;;;;;;12344823;28;20052;-41
